Southington, OH

12:14 AM EDT on May 26, 2015 (GMT -0400)
Shalersville | | Change Station
CLOSE
Current Station
Personal Weather Station
Location: Mantua, OH
Elevation: 1296 ft
Nearby Weather Stations

Elev 1296 ft 41.25 °N, 81.21 °W | Updated 36 seconds ago

Overcast
Overcast
71.8 °F
Feels Like 77 °F
N
2.0
Wind Variable Wind from West
Gusts 4.0 mph

Today
High -- | Low -- °F
--% Chance of Precip.
Yesterday
High -- | Low -- °F
Precip. -- in
5:56 AM 8:45 PM
First Quarter, 54% visible
Pressure 30.09 in
Visibility 10.0 miles
Clouds Overcast 6500 ft
Heat Index 77 °F
Dew Point 50 °F
Humidity 47%
Rainfall 0.00 in
Snow Depth Not available.
UV 0 out of 12
Pollen 9.60 out of 12
Air Quality Not available.
Flu Activity Local Activity
METAR KYNG 260351Z 21009KT 10SM OVC065 23/16 A3011 RMK AO2 SLP189 T02330161

More Conditions Fewer Conditions

Pressure 30.09 in
Visibility 10.0 miles
Clouds Overcast 6500 ft
Heat Index 77 °F
Dew Point 50 °F
Humidity 47%
Rainfall 0.00 in
Snow Depth Not available.
UV 0 out of 12
Pollen 9.60 out of 12
Air Quality Not available.
Flu Activity Local Activity
METAR KYNG 260351Z 21009KT 10SM OVC065 23/16 A3011 RMK AO2 SLP189 T02330161

More Conditions Fewer Conditions

10-Day Weather Forecast

Almanac

Astronomy

May. 26, 2015 Rise Set
Actual Time
Civil Twilight
Nautical Twilight
Astronomical Twilight
Moon
Length of Visible Light
Length of Day
Tomorrow will be .
, % of the Moon is Illuminated

Today's Extremes

State Highs State Lows

Community

WunderPhotos

Upload Photos

1,824,277 photos uploaded!

WunderBlogs® & News

Nearby

Air Quality

  Air Quality AQ Index Pollutant
Not available.

Snow Depth

Station Depth Elevation

Earthquake Activity

City Distance Mag. Time & Date
Minimum magnitude displayed is 2.5.

Coastal Water Temperatures

Place Temperature

Stations

Nearby Weather Stations

Station Location Temp. Windchill Dew Point Humidity Wind Precip. Elev Updated Type